createdAt,value
2018-07-31T00:01:45.088Z,21.90
2018-07-31T00:04:13.433Z,21.80
2018-07-31T00:06:41.921Z,21.80
2018-07-31T00:09:10.312Z,21.80
2018-07-31T00:11:38.783Z,21.70
2018-07-31T00:14:07.200Z,21.70
2018-07-31T00:16:35.652Z,21.60
2018-07-31T00:19:03.988Z,21.60
2018-07-31T00:21:32.416Z,21.60
2018-07-31T00:24:00.875Z,21.50
2018-07-31T00:26:29.256Z,21.50
2018-07-31T00:28:57.629Z,21.50
2018-07-31T00:31:25.994Z,21.40
2018-07-31T00:33:54.384Z,21.40
2018-07-31T00:36:22.769Z,21.30
2018-07-31T00:38:51.126Z,21.30
2018-07-31T00:41:19.490Z,21.20
2018-07-31T00:43:48.060Z,21.20
2018-07-31T00:46:16.426Z,21.10
2018-07-31T00:48:44.848Z,21.10
2018-07-31T00:51:13.236Z,21.10
2018-07-31T00:53:41.586Z,21.00
2018-07-31T00:56:09.984Z,21.00
2018-07-31T00:58:38.360Z,21.00
2018-07-31T01:01:06.845Z,20.90
2018-07-31T01:03:35.226Z,20.90
2018-07-31T01:06:03.610Z,20.90
2018-07-31T01:08:31.922Z,20.80
2018-07-31T01:11:00.315Z,20.80
2018-07-31T01:13:28.719Z,20.70
2018-07-31T01:15:57.064Z,20.70
2018-07-31T01:18:25.491Z,20.60
2018-07-31T01:20:53.834Z,20.60
2018-07-31T01:23:22.232Z,20.60
2018-07-31T01:25:50.663Z,20.60
2018-07-31T01:28:19.003Z,20.60
2018-07-31T01:30:47.412Z,20.50
2018-07-31T01:33:15.744Z,20.50
2018-07-31T01:35:44.150Z,20.50
2018-07-31T01:38:12.472Z,20.50
2018-07-31T01:40:40.824Z,20.40
2018-07-31T01:43:10.341Z,20.40
2018-07-31T01:45:38.808Z,20.30
2018-07-31T01:48:07.229Z,20.30
2018-07-31T01:50:35.582Z,20.20
2018-07-31T01:53:03.998Z,20.20
2018-07-31T01:55:32.522Z,20.20
2018-07-31T01:58:00.892Z,20.10
2018-07-31T02:00:29.291Z,20.10
2018-07-31T02:02:57.650Z,20.10
2018-07-31T02:05:26.018Z,20.00
2018-07-31T02:07:54.389Z,19.90
2018-07-31T02:10:22.782Z,19.80
2018-07-31T02:12:51.147Z,19.80
2018-07-31T02:15:19.502Z,19.80
2018-07-31T02:17:47.840Z,19.70
2018-07-31T02:20:16.191Z,19.70
2018-07-31T02:22:44.606Z,19.70
2018-07-31T02:25:12.982Z,19.70
2018-07-31T02:27:41.419Z,19.70
2018-07-31T02:30:14.041Z,19.70
2018-07-31T02:32:42.404Z,19.70
2018-07-31T02:35:10.733Z,19.60
2018-07-31T02:37:39.099Z,19.60
2018-07-31T02:40:07.454Z,19.60
2018-07-31T02:42:35.824Z,19.60
2018-07-31T02:45:06.292Z,19.60
2018-07-31T02:47:34.645Z,19.60
2018-07-31T02:50:03.024Z,19.60
2018-07-31T02:52:31.386Z,19.50
2018-07-31T02:54:59.750Z,19.50
2018-07-31T02:57:28.110Z,19.50
2018-07-31T02:59:56.508Z,19.40
2018-07-31T03:02:28.307Z,19.40
2018-07-31T03:04:57.952Z,19.40
2018-07-31T03:07:26.456Z,19.40
2018-07-31T03:09:55.069Z,19.30
2018-07-31T03:12:23.464Z,19.30
2018-07-31T03:19:48.084Z,19.20
2018-07-31T03:22:16.563Z,19.20
2018-07-31T03:24:44.967Z,19.20
2018-07-31T03:27:13.321Z,19.20
2018-07-31T03:29:41.705Z,19.20
2018-07-31T03:32:10.077Z,19.20
2018-07-31T03:34:38.498Z,19.10
2018-07-31T03:37:06.922Z,19.10
2018-07-31T03:39:35.599Z,19.10
2018-07-31T03:42:03.995Z,19.10
2018-07-31T03:44:32.364Z,19.00
2018-07-31T03:47:00.743Z,19.00
2018-07-31T03:49:29.055Z,19.00
2018-07-31T03:51:57.388Z,19.00
2018-07-31T03:54:25.766Z,19.00
2018-07-31T03:56:54.125Z,19.00
2018-07-31T03:59:22.492Z,19.00
2018-07-31T04:01:50.866Z,19.10
2018-07-31T04:04:19.248Z,19.10
2018-07-31T04:06:47.601Z,19.10
2018-07-31T04:09:15.998Z,19.10
2018-07-31T04:11:44.346Z,19.10
2018-07-31T04:16:40.723Z,19.10
2018-07-31T04:19:09.305Z,19.10
2018-07-31T04:21:37.654Z,19.10
2018-07-31T04:26:34.109Z,19.20
2018-07-31T04:29:02.435Z,19.20
2018-07-31T04:31:30.781Z,19.30
2018-07-31T04:33:59.131Z,19.30
2018-07-31T04:36:27.803Z,19.40
2018-07-31T04:38:56.153Z,19.40
2018-07-31T04:41:24.500Z,19.50
2018-07-31T04:43:52.972Z,19.60
2018-07-31T04:46:21.637Z,19.70
2018-07-31T04:48:49.968Z,19.70
2018-07-31T04:51:18.398Z,19.80
2018-07-31T04:53:46.711Z,19.90
2018-07-31T04:56:15.051Z,20.00
2018-07-31T04:58:43.383Z,20.00
2018-07-31T05:01:11.762Z,20.10
2018-07-31T05:03:40.140Z,20.20
2018-07-31T05:06:08.491Z,20.30
2018-07-31T05:08:36.879Z,20.50
2018-07-31T05:11:05.287Z,20.70
2018-07-31T05:13:33.624Z,21.00
2018-07-31T05:16:01.932Z,21.20
2018-07-31T05:18:30.303Z,21.40
2018-07-31T05:20:58.682Z,21.70
2018-07-31T05:23:27.063Z,21.90
2018-07-31T05:25:55.541Z,22.10
2018-07-31T05:28:23.866Z,22.30
2018-07-31T05:30:52.235Z,22.40
2018-07-31T05:33:20.576Z,22.50
2018-07-31T05:35:48.921Z,22.50
2018-07-31T05:38:17.283Z,22.50
2018-07-31T05:40:45.580Z,22.40
2018-07-31T05:43:13.915Z,22.30
2018-07-31T05:45:42.252Z,22.40
2018-07-31T05:48:10.615Z,22.50
2018-07-31T05:50:38.980Z,22.60
2018-07-31T05:53:07.331Z,22.90
2018-07-31T05:55:35.706Z,23.30
2018-07-31T05:58:04.142Z,23.60
2018-07-31T06:00:32.472Z,23.90
2018-07-31T06:03:00.904Z,24.20
2018-07-31T06:05:29.316Z,24.50
2018-07-31T06:07:57.660Z,24.70
2018-07-31T06:10:26.039Z,24.90
2018-07-31T06:12:54.389Z,25.00
2018-07-31T06:15:22.748Z,25.20
2018-07-31T06:17:51.106Z,25.40
2018-07-31T06:20:19.440Z,25.60
2018-07-31T06:22:48.347Z,25.80
2018-07-31T06:25:16.700Z,26.10
2018-07-31T06:27:45.266Z,26.40
2018-07-31T06:30:14.919Z,26.50
2018-07-31T06:32:43.472Z,26.80
2018-07-31T06:35:11.895Z,27.00
2018-07-31T06:37:40.422Z,27.40
2018-07-31T06:40:11.501Z,27.70
2018-07-31T06:42:39.836Z,28.00
2018-07-31T06:45:08.214Z,28.30
2018-07-31T06:47:36.569Z,28.50
2018-07-31T06:50:05.372Z,28.30
2018-07-31T06:52:33.811Z,28.50
2018-07-31T06:55:02.148Z,28.90
2018-07-31T06:57:30.476Z,29.10
2018-07-31T06:59:58.850Z,29.30
2018-07-31T07:02:27.188Z,29.60
2018-07-31T07:04:55.560Z,29.90
2018-07-31T07:07:23.931Z,29.80
2018-07-31T07:09:52.297Z,29.90
2018-07-31T07:12:20.672Z,29.80
2018-07-31T07:14:49.123Z,29.60
2018-07-31T07:17:17.443Z,29.70
2018-07-31T07:19:45.805Z,29.80
2018-07-31T07:22:14.141Z,29.90
2018-07-31T07:24:42.518Z,29.80
2018-07-31T07:27:10.872Z,29.50
2018-07-31T07:29:39.204Z,29.20
2018-07-31T07:32:07.600Z,29.20
2018-07-31T07:34:35.942Z,29.40
2018-07-31T07:37:04.310Z,29.70
2018-07-31T07:39:32.640Z,29.60
2018-07-31T07:42:01.059Z,29.50
2018-07-31T07:44:29.475Z,29.30
2018-07-31T07:46:57.835Z,29.30
2018-07-31T07:49:26.252Z,29.80
2018-07-31T07:51:54.596Z,30.10
2018-07-31T07:54:22.973Z,30.60
2018-07-31T07:56:51.283Z,31.00
2018-07-31T07:59:19.608Z,30.70
2018-07-31T08:01:47.974Z,30.90
2018-07-31T08:04:16.318Z,31.30
2018-07-31T08:06:44.693Z,31.70
2018-07-31T08:09:13.054Z,32.20
2018-07-31T08:11:41.397Z,32.70
2018-07-31T08:14:09.724Z,32.80
2018-07-31T08:16:38.066Z,33.00
2018-07-31T08:19:06.419Z,33.30
2018-07-31T08:21:34.855Z,33.40
2018-07-31T08:24:03.400Z,33.70
2018-07-31T08:26:31.799Z,34.10
2018-07-31T08:29:00.176Z,34.10
2018-07-31T08:31:28.540Z,33.90
2018-07-31T08:33:56.951Z,34.00
2018-07-31T08:36:25.431Z,34.30
2018-07-31T08:38:53.834Z,34.10
2018-07-31T08:41:22.386Z,34.00
2018-07-31T08:43:50.655Z,34.10
2018-07-31T08:46:18.995Z,34.20
2018-07-31T08:48:47.427Z,34.40
2018-07-31T08:51:15.817Z,34.20
2018-07-31T08:53:44.146Z,34.10
2018-07-31T08:56:12.662Z,34.50
2018-07-31T08:58:41.109Z,34.90
2018-07-31T09:01:09.503Z,35.10
2018-07-31T09:03:37.869Z,35.20
2018-07-31T09:06:06.467Z,35.60
2018-07-31T09:08:35.634Z,35.90
2018-07-31T09:11:04.067Z,36.40
2018-07-31T09:13:32.525Z,35.80
2018-07-31T09:16:00.928Z,35.80
2018-07-31T09:18:29.377Z,35.90
2018-07-31T09:20:59.064Z,35.50
2018-07-31T09:23:28.252Z,35.30
2018-07-31T09:25:59.665Z,35.40
2018-07-31T09:28:28.523Z,35.50
2018-07-31T09:31:02.246Z,35.50
2018-07-31T09:33:30.522Z,35.80
2018-07-31T09:35:59.127Z,35.80
2018-07-31T09:38:27.454Z,36.10
2018-07-31T09:40:55.812Z,35.60
2018-07-31T09:45:52.248Z,36.00
2018-07-31T09:48:20.634Z,35.70
2018-07-31T09:50:49.006Z,35.90
2018-07-31T09:53:17.395Z,35.90
2018-07-31T09:55:45.975Z,35.90
2018-07-31T09:58:14.312Z,36.10
2018-07-31T10:00:47.982Z,36.30
2018-07-31T10:03:16.407Z,37.00
2018-07-31T10:05:44.790Z,36.90
2018-07-31T10:08:18.152Z,36.60
2018-07-31T10:10:46.523Z,36.70
2018-07-31T10:13:14.962Z,36.90
2018-07-31T10:18:11.442Z,37.80
2018-07-31T10:20:39.787Z,37.80
2018-07-31T10:23:08.120Z,37.90
2018-07-31T10:25:36.724Z,38.00
2018-07-31T10:28:05.156Z,38.00
2018-07-31T10:30:33.643Z,38.10
2018-07-31T10:33:02.037Z,37.80
2018-07-31T10:35:30.394Z,38.10
2018-07-31T10:37:58.795Z,37.80
2018-07-31T10:40:27.145Z,37.60
2018-07-31T10:42:55.648Z,36.90
2018-07-31T10:45:24.102Z,36.60
2018-07-31T10:47:52.428Z,37.00
2018-07-31T10:50:20.818Z,37.00
2018-07-31T10:52:49.191Z,36.90
2018-07-31T10:55:17.554Z,36.80
2018-07-31T10:57:45.969Z,36.20
2018-07-31T11:00:14.362Z,36.60
2018-07-31T11:02:42.811Z,36.80
2018-07-31T11:05:11.182Z,37.10
2018-07-31T11:07:39.619Z,36.60
2018-07-31T11:10:08.193Z,36.40
2018-07-31T11:12:36.704Z,36.10
2018-07-31T11:15:05.875Z,36.40
2018-07-31T11:17:34.266Z,36.70
2018-07-31T11:20:02.698Z,36.70
2018-07-31T11:22:31.096Z,36.80
2018-07-31T11:27:27.660Z,36.50
2018-07-31T11:29:55.988Z,36.50
2018-07-31T11:32:24.369Z,36.30
2018-07-31T11:34:52.782Z,36.50
2018-07-31T11:37:21.137Z,36.80
2018-07-31T11:39:49.563Z,36.60
2018-07-31T11:42:17.955Z,36.70
2018-07-31T11:44:46.303Z,37.20
2018-07-31T11:47:14.746Z,37.10
2018-07-31T11:49:43.283Z,36.30
2018-07-31T11:52:11.637Z,36.70
2018-07-31T11:54:40.023Z,36.90
2018-07-31T11:57:08.407Z,36.70
2018-07-31T11:59:36.949Z,36.90
2018-07-31T12:02:05.331Z,36.80
2018-07-31T12:04:33.694Z,37.20
2018-07-31T12:07:02.070Z,37.00
2018-07-31T12:09:30.421Z,37.10
2018-07-31T12:11:58.758Z,37.20
2018-07-31T12:14:27.125Z,37.30
2018-07-31T12:16:55.527Z,37.00
2018-07-31T12:19:23.855Z,37.00
2018-07-31T12:21:52.212Z,37.50
2018-07-31T12:24:20.560Z,37.10
2018-07-31T12:26:48.899Z,37.00
2018-07-31T12:29:17.252Z,36.90
2018-07-31T12:31:45.599Z,37.00
2018-07-31T12:34:13.952Z,37.30
2018-07-31T12:36:42.367Z,37.40
2018-07-31T12:39:12.383Z,37.30
2018-07-31T12:41:40.742Z,37.30
2018-07-31T12:44:09.141Z,37.30
2018-07-31T12:46:38.057Z,36.80
2018-07-31T12:49:06.752Z,36.20
2018-07-31T12:51:35.185Z,36.00
2018-07-31T12:54:03.595Z,35.80
2018-07-31T12:56:31.989Z,35.50
2018-07-31T12:59:00.303Z,35.60
2018-07-31T13:01:28.727Z,35.50
2018-07-31T13:03:57.087Z,35.10
2018-07-31T13:06:25.425Z,35.10
2018-07-31T13:08:53.828Z,35.30
2018-07-31T13:11:22.203Z,35.30
2018-07-31T13:13:50.608Z,35.20
2018-07-31T13:16:18.973Z,35.10
2018-07-31T13:18:47.467Z,35.20
2018-07-31T13:21:15.909Z,34.80
2018-07-31T13:23:44.252Z,34.60
2018-07-31T13:26:12.659Z,34.90
2018-07-31T13:28:41.062Z,35.60
2018-07-31T13:31:09.424Z,36.10
2018-07-31T13:33:37.768Z,36.10
2018-07-31T13:36:06.138Z,36.30
2018-07-31T13:38:34.579Z,36.10
2018-07-31T13:41:03.055Z,36.30
2018-07-31T13:43:32.123Z,36.40
2018-07-31T13:46:00.871Z,36.70
2018-07-31T13:48:29.272Z,36.40
2018-07-31T13:50:57.592Z,36.60
2018-07-31T13:53:26.379Z,36.80
2018-07-31T13:55:54.893Z,36.90
2018-07-31T13:58:23.275Z,36.70
2018-07-31T14:00:51.624Z,36.80
2018-07-31T14:03:20.727Z,36.90
2018-07-31T14:05:49.203Z,37.00
2018-07-31T14:08:17.576Z,36.90
2018-07-31T14:10:45.987Z,37.00
2018-07-31T14:13:14.380Z,36.90
2018-07-31T14:15:42.754Z,36.80
2018-07-31T14:18:11.145Z,36.40
2018-07-31T14:20:39.723Z,36.40
2018-07-31T14:23:08.038Z,36.70
2018-07-31T14:25:36.414Z,37.10
2018-07-31T14:28:05.187Z,37.60
2018-07-31T14:30:33.613Z,37.60
2018-07-31T14:33:02.099Z,36.90
2018-07-31T14:35:30.682Z,37.00
2018-07-31T14:37:59.386Z,36.60
2018-07-31T14:42:56.222Z,36.40
2018-07-31T14:45:24.553Z,36.70
2018-07-31T14:47:52.903Z,36.70
2018-07-31T14:50:21.588Z,36.70
2018-07-31T14:52:50.008Z,36.90
2018-07-31T14:55:18.382Z,37.40
2018-07-31T14:57:46.761Z,37.10
2018-07-31T15:00:15.170Z,37.40
2018-07-31T15:02:43.570Z,37.50
2018-07-31T15:05:11.998Z,37.00
2018-07-31T15:07:40.476Z,37.00
2018-07-31T15:10:09.033Z,36.90
2018-07-31T15:12:37.614Z,37.30
2018-07-31T15:15:06.083Z,37.80
2018-07-31T15:17:34.610Z,38.20
2018-07-31T15:20:03.084Z,38.50
2018-07-31T15:22:31.433Z,38.70
2018-07-31T15:24:59.823Z,38.40
2018-07-31T15:27:28.370Z,37.90
2018-07-31T15:29:59.675Z,38.10
2018-07-31T15:32:28.050Z,38.00
2018-07-31T15:34:56.609Z,37.90
2018-07-31T15:37:25.015Z,36.80
2018-07-31T15:39:53.392Z,37.00
2018-07-31T15:42:21.835Z,37.10
2018-07-31T15:44:50.807Z,37.50
2018-07-31T15:47:19.228Z,37.00
2018-07-31T15:49:47.615Z,36.50
2018-07-31T15:52:16.065Z,36.80
2018-07-31T15:54:44.614Z,36.60
2018-07-31T15:57:13.066Z,36.60
2018-07-31T15:59:41.602Z,36.20
2018-07-31T16:02:10.016Z,35.20
2018-07-31T16:04:38.708Z,35.00
2018-07-31T16:07:09.218Z,35.10
2018-07-31T16:09:37.662Z,35.20
2018-07-31T16:12:06.947Z,35.20
2018-07-31T16:14:37.814Z,34.60
2018-07-31T16:17:06.740Z,34.80
2018-07-31T16:19:35.202Z,34.80
2018-07-31T16:22:03.765Z,34.50
2018-07-31T16:24:32.547Z,34.40
2018-07-31T16:27:01.551Z,33.90
2018-07-31T16:29:30.402Z,33.90
2018-07-31T16:31:58.966Z,33.70
2018-07-31T16:34:27.686Z,33.70
2018-07-31T16:36:56.351Z,33.90
2018-07-31T16:39:24.761Z,33.80
2018-07-31T16:41:53.209Z,33.60
2018-07-31T16:44:21.588Z,33.50
2018-07-31T16:46:49.976Z,33.40
2018-07-31T16:49:18.328Z,33.30
2018-07-31T16:51:46.707Z,33.30
2018-07-31T16:54:15.262Z,33.10
2018-07-31T16:56:43.742Z,33.20
2018-07-31T16:59:13.007Z,33.10
2018-07-31T17:01:41.744Z,32.80
2018-07-31T17:04:10.447Z,32.60
2018-07-31T17:06:39.029Z,32.50
2018-07-31T17:09:07.922Z,32.60
2018-07-31T17:11:36.355Z,32.50
2018-07-31T17:14:04.971Z,32.30
2018-07-31T17:16:33.496Z,32.30
2018-07-31T17:19:01.887Z,32.20
2018-07-31T17:23:58.472Z,32.20
2018-07-31T17:26:27.336Z,32.10
2018-07-31T17:31:23.916Z,31.90
2018-07-31T17:33:52.336Z,31.70
2018-07-31T17:36:20.719Z,31.70
2018-07-31T17:38:49.183Z,31.50
2018-07-31T17:41:17.519Z,31.30
2018-07-31T17:43:45.902Z,31.20
2018-07-31T17:46:15.474Z,31.10
2018-07-31T17:48:43.945Z,31.10
2018-07-31T17:51:12.406Z,31.10
2018-07-31T17:53:41.601Z,31.00
2018-07-31T17:56:10.850Z,30.90
2018-07-31T17:58:39.261Z,30.80
2018-07-31T18:01:07.686Z,30.70
2018-07-31T18:03:36.121Z,30.60
2018-07-31T18:06:04.521Z,30.50
2018-07-31T18:08:33.636Z,30.40
2018-07-31T18:11:02.403Z,30.30
2018-07-31T18:13:30.827Z,30.20
2018-07-31T18:15:59.180Z,30.10
2018-07-31T18:18:27.839Z,29.90
2018-07-31T18:20:56.253Z,29.70
2018-07-31T18:23:24.623Z,29.50
2018-07-31T18:25:53.068Z,29.30
2018-07-31T18:28:21.614Z,29.20
2018-07-31T18:30:50.021Z,29.00
2018-07-31T18:33:18.464Z,28.90
2018-07-31T18:38:14.973Z,28.60
2018-07-31T18:40:43.342Z,28.50
2018-07-31T18:43:11.736Z,28.30
2018-07-31T18:45:40.185Z,28.10
2018-07-31T18:48:08.679Z,28.00
2018-07-31T18:50:37.113Z,27.90
2018-07-31T18:53:05.503Z,27.80
2018-07-31T18:55:34.243Z,27.70
2018-07-31T18:58:02.641Z,27.60
2018-07-31T19:00:31.048Z,27.50
2018-07-31T19:02:59.434Z,27.40
2018-07-31T19:05:27.814Z,27.30
2018-07-31T19:07:56.159Z,27.20
2018-07-31T19:10:24.551Z,27.10
2018-07-31T19:12:52.921Z,27.00
2018-07-31T19:15:21.340Z,27.00
2018-07-31T19:17:49.766Z,26.90
2018-07-31T19:20:18.224Z,26.80
2018-07-31T19:22:46.584Z,26.70
2018-07-31T19:25:14.967Z,26.60
2018-07-31T19:27:43.428Z,26.50
2018-07-31T19:30:11.890Z,26.40
2018-07-31T19:32:40.590Z,26.30
2018-07-31T19:35:09.138Z,26.30
2018-07-31T19:37:37.662Z,26.20
2018-07-31T19:40:06.494Z,26.10
2018-07-31T19:42:34.839Z,26.00
2018-07-31T19:45:03.210Z,25.90
2018-07-31T19:47:32.320Z,25.80
2018-07-31T19:50:00.812Z,25.70
2018-07-31T19:52:33.364Z,25.70
2018-07-31T19:55:01.867Z,25.60
2018-07-31T19:57:30.244Z,25.60
2018-07-31T19:59:58.690Z,25.50
2018-07-31T20:02:27.230Z,25.40
2018-07-31T20:04:55.611Z,25.30
2018-07-31T20:07:23.990Z,25.30
2018-07-31T20:09:52.484Z,25.20
2018-07-31T20:12:20.972Z,25.20
2018-07-31T20:14:49.608Z,25.10
2018-07-31T20:17:18.114Z,25.10
2018-07-31T20:19:46.573Z,25.00
2018-07-31T20:22:15.108Z,25.00
2018-07-31T20:24:43.538Z,24.90
2018-07-31T20:27:12.150Z,24.90
2018-07-31T20:29:40.904Z,24.80
2018-07-31T20:32:09.319Z,24.70
2018-07-31T20:34:37.719Z,24.70
2018-07-31T20:37:06.094Z,24.60
2018-07-31T20:39:34.517Z,24.60
2018-07-31T20:42:02.951Z,24.50
2018-07-31T20:44:31.856Z,24.50
2018-07-31T20:47:00.295Z,24.40
2018-07-31T20:49:28.680Z,24.40
2018-07-31T20:51:57.147Z,24.30
2018-07-31T20:54:25.563Z,24.30
2018-07-31T20:56:54.172Z,24.20
2018-07-31T20:59:22.520Z,24.20
2018-07-31T21:01:50.998Z,24.20
2018-07-31T21:04:19.427Z,24.10
2018-07-31T21:06:48.017Z,24.10
2018-07-31T21:09:21.444Z,24.00
2018-07-31T21:11:51.652Z,24.00
2018-07-31T21:14:20.321Z,24.00
2018-07-31T21:16:48.720Z,23.90
2018-07-31T21:19:17.157Z,23.90
2018-07-31T21:21:45.579Z,23.80
2018-07-31T21:24:13.934Z,23.80
2018-07-31T21:26:42.347Z,23.70
2018-07-31T21:29:10.726Z,23.70
2018-07-31T21:31:39.111Z,23.70
2018-07-31T21:34:07.451Z,23.60
2018-07-31T21:39:05.996Z,23.50
2018-07-31T21:41:34.373Z,23.50
2018-07-31T21:44:02.922Z,23.50
2018-07-31T21:46:31.341Z,23.40
2018-07-31T21:48:59.705Z,23.40
2018-07-31T21:51:28.188Z,23.40
2018-07-31T21:53:56.619Z,23.30
2018-07-31T21:56:24.988Z,23.30
2018-07-31T21:58:53.328Z,23.20
2018-07-31T22:01:22.016Z,23.20
2018-07-31T22:03:50.391Z,23.10
2018-07-31T22:06:18.795Z,23.10
2018-07-31T22:08:47.181Z,23.00
2018-07-31T22:11:16.007Z,23.00
2018-07-31T22:13:44.420Z,23.00
2018-07-31T22:16:12.756Z,23.00
2018-07-31T22:18:41.226Z,22.90
2018-07-31T22:21:09.757Z,22.90
2018-07-31T22:23:38.142Z,22.80
2018-07-31T22:26:06.510Z,22.80
2018-07-31T22:28:34.943Z,22.80
2018-07-31T22:31:03.322Z,22.80
2018-07-31T22:33:31.752Z,22.70
2018-07-31T22:36:00.161Z,22.70
2018-07-31T22:38:28.638Z,22.70
2018-07-31T22:40:57.083Z,22.70
2018-07-31T22:43:25.580Z,22.70
2018-07-31T22:45:53.992Z,22.70
2018-07-31T22:48:23.202Z,22.60
2018-07-31T22:50:51.717Z,22.60
2018-07-31T22:53:20.055Z,22.60
2018-07-31T22:55:48.408Z,22.50
2018-07-31T22:58:16.891Z,22.50
2018-07-31T23:00:45.240Z,22.40
2018-07-31T23:03:13.675Z,22.40
2018-07-31T23:05:42.023Z,22.40
2018-07-31T23:08:10.495Z,22.30
2018-07-31T23:10:40.904Z,22.30
2018-07-31T23:13:09.270Z,22.30
2018-07-31T23:15:37.756Z,22.20
2018-07-31T23:18:06.204Z,22.20
2018-07-31T23:20:34.608Z,22.10
2018-07-31T23:23:03.042Z,22.10
2018-07-31T23:25:31.508Z,22.10
2018-07-31T23:27:59.851Z,22.00
2018-07-31T23:30:28.215Z,22.00
2018-07-31T23:32:56.561Z,22.00
2018-07-31T23:35:24.889Z,22.00
2018-07-31T23:37:53.292Z,21.90
2018-07-31T23:40:21.663Z,21.90
2018-07-31T23:42:50.025Z,21.90
2018-07-31T23:45:18.399Z,21.90
2018-07-31T23:47:46.724Z,21.80
2018-07-31T23:50:15.108Z,21.80
2018-07-31T23:52:43.502Z,21.80
2018-07-31T23:55:12.007Z,21.80
2018-07-31T23:57:40.478Z,21.70
